sensor_id;sensor_type;location;lat;lon;timestamp;P1;durP1;ratioP1;P2;durP2;ratioP2
41309;SDS011;27057;51.438;-0.010;2023-04-25T00:01:48;19.17;;;4.47;;
41309;SDS011;27057;51.438;-0.010;2023-04-25T00:04:18;27.67;;;4.90;;
41309;SDS011;27057;51.438;-0.010;2023-04-25T00:06:46;28.40;;;4.97;;
41309;SDS011;27057;51.438;-0.010;2023-04-25T00:09:14;22.65;;;5.30;;
41309;SDS011;27057;51.438;-0.010;2023-04-25T00:11:42;41.13;;;5.53;;
41309;SDS011;27057;51.438;-0.010;2023-04-25T00:14:09;17.80;;;5.28;;
41309;SDS011;27057;51.438;-0.010;2023-04-25T00:16:37;28.17;;;5.20;;
41309;SDS011;27057;51.438;-0.010;2023-04-25T00:19:04;29.63;;;5.20;;
41309;SDS011;27057;51.438;-0.010;2023-04-25T00:21:31;37.47;;;6.10;;
41309;SDS011;27057;51.438;-0.010;2023-04-25T00:23:59;29.35;;;4.40;;
41309;SDS011;27057;51.438;-0.010;2023-04-25T00:26:27;21.73;;;4.63;;
41309;SDS011;27057;51.438;-0.010;2023-04-25T00:28:54;31.00;;;5.32;;
41309;SDS011;27057;51.438;-0.010;2023-04-25T00:31:22;26.45;;;4.57;;
41309;SDS011;27057;51.438;-0.010;2023-04-25T00:33:51;23.27;;;4.30;;
41309;SDS011;27057;51.438;-0.010;2023-04-25T00:36:20;34.33;;;3.92;;
41309;SDS011;27057;51.438;-0.010;2023-04-25T00:38:48;15.93;;;3.60;;
41309;SDS011;27057;51.438;-0.010;2023-04-25T00:41:15;40.33;;;4.88;;
41309;SDS011;27057;51.438;-0.010;2023-04-25T00:43:43;24.20;;;4.65;;
41309;SDS011;27057;51.438;-0.010;2023-04-25T00:46:12;28.85;;;4.80;;
41309;SDS011;27057;51.438;-0.010;2023-04-25T00:48:39;26.88;;;7.20;;
41309;SDS011;27057;51.438;-0.010;2023-04-25T00:51:07;25.58;;;3.85;;
41309;SDS011;27057;51.438;-0.010;2023-04-25T00:53:40;21.58;;;4.18;;
41309;SDS011;27057;51.438;-0.010;2023-04-25T00:56:07;15.18;;;3.92;;
41309;SDS011;27057;51.438;-0.010;2023-04-25T00:58:35;29.10;;;4.53;;
41309;SDS011;27057;51.438;-0.010;2023-04-25T01:01:04;32.15;;;4.53;;
41309;SDS011;27057;51.438;-0.010;2023-04-25T01:03:33;36.38;;;2.55;;
41309;SDS011;27057;51.438;-0.010;2023-04-25T01:06:08;35.50;;;4.53;;
41309;SDS011;27057;51.438;-0.010;2023-04-25T01:08:37;30.75;;;3.97;;
41309;SDS011;27057;51.438;-0.010;2023-04-25T01:11:06;30.08;;;4.97;;
41309;SDS011;27057;51.438;-0.010;2023-04-25T01:13:33;21.42;;;3.63;;
41309;SDS011;27057;51.438;-0.010;2023-04-25T01:16:02;16.77;;;3.60;;
41309;SDS011;27057;51.438;-0.010;2023-04-25T01:18:29;18.33;;;4.20;;
41309;SDS011;27057;51.438;-0.010;2023-04-25T01:21:02;23.52;;;4.10;;
41309;SDS011;27057;51.438;-0.010;2023-04-25T01:23:36;27.73;;;3.90;;
41309;SDS011;27057;51.438;-0.010;2023-04-25T01:26:06;49.83;;;4.30;;
41309;SDS011;27057;51.438;-0.010;2023-04-25T01:28:35;22.50;;;4.35;;
41309;SDS011;27057;51.438;-0.010;2023-04-25T01:31:03;28.52;;;4.72;;
41309;SDS011;27057;51.438;-0.010;2023-04-25T01:33:32;15.30;;;3.67;;
41309;SDS011;27057;51.438;-0.010;2023-04-25T01:36:00;18.40;;;3.53;;
41309;SDS011;27057;51.438;-0.010;2023-04-25T01:38:28;39.80;;;4.30;;
41309;SDS011;27057;51.438;-0.010;2023-04-25T01:40:55;32.42;;;4.93;;
41309;SDS011;27057;51.438;-0.010;2023-04-25T01:43:23;23.60;;;3.72;;
41309;SDS011;27057;51.438;-0.010;2023-04-25T01:45:50;25.20;;;4.10;;
41309;SDS011;27057;51.438;-0.010;2023-04-25T01:48:18;31.50;;;5.30;;
41309;SDS011;27057;51.438;-0.010;2023-04-25T01:50:47;25.58;;;4.88;;
41309;SDS011;27057;51.438;-0.010;2023-04-25T01:53:15;25.60;;;3.55;;
41309;SDS011;27057;51.438;-0.010;2023-04-25T01:55:44;36.83;;;5.68;;
41309;SDS011;27057;51.438;-0.010;2023-04-25T01:58:14;26.98;;;4.35;;
41309;SDS011;27057;51.438;-0.010;2023-04-25T02:01:20;24.05;;;4.90;;
41309;SDS011;27057;51.438;-0.010;2023-04-25T02:04:03;24.98;;;4.57;;
41309;SDS011;27057;51.438;-0.010;2023-04-25T02:06:35;17.95;;;3.42;;
41309;SDS011;27057;51.438;-0.010;2023-04-25T02:09:02;23.63;;;3.75;;
41309;SDS011;27057;51.438;-0.010;2023-04-25T02:11:29;19.80;;;4.28;;
41309;SDS011;27057;51.438;-0.010;2023-04-25T02:14:16;27.77;;;4.80;;
41309;SDS011;27057;51.438;-0.010;2023-04-25T02:16:49;27.38;;;4.55;;
41309;SDS011;27057;51.438;-0.010;2023-04-25T02:19:18;31.38;;;3.45;;
41309;SDS011;27057;51.438;-0.010;2023-04-25T02:21:46;16.52;;;3.80;;
41309;SDS011;27057;51.438;-0.010;2023-04-25T02:24:13;15.02;;;3.28;;
41309;SDS011;27057;51.438;-0.010;2023-04-25T02:26:41;24.10;;;4.40;;
41309;SDS011;27057;51.438;-0.010;2023-04-25T02:29:09;22.90;;;4.35;;
41309;SDS011;27057;51.438;-0.010;2023-04-25T02:31:36;23.30;;;5.25;;
41309;SDS011;27057;51.438;-0.010;2023-04-25T02:34:04;26.98;;;4.15;;
41309;SDS011;27057;51.438;-0.010;2023-04-25T02:36:34;29.02;;;4.13;;
41309;SDS011;27057;51.438;-0.010;2023-04-25T02:39:02;28.08;;;3.85;;
41309;SDS011;27057;51.438;-0.010;2023-04-25T02:41:30;24.02;;;4.07;;
41309;SDS011;27057;51.438;-0.010;2023-04-25T02:43:57;24.70;;;4.80;;
41309;SDS011;27057;51.438;-0.010;2023-04-25T02:46:24;15.05;;;3.00;;
41309;SDS011;27057;51.438;-0.010;2023-04-25T02:49:05;27.00;;;4.78;;
41309;SDS011;27057;51.438;-0.010;2023-04-25T02:51:35;27.40;;;3.78;;
41309;SDS011;27057;51.438;-0.010;2023-04-25T02:54:03;19.95;;;4.78;;
41309;SDS011;27057;51.438;-0.010;2023-04-25T02:56:35;24.08;;;4.75;;
41309;SDS011;27057;51.438;-0.010;2023-04-25T02:59:07;29.45;;;4.05;;
41309;SDS011;27057;51.438;-0.010;2023-04-25T03:01:34;20.88;;;4.25;;
41309;SDS011;27057;51.438;-0.010;2023-04-25T03:04:02;18.65;;;4.05;;
41309;SDS011;27057;51.438;-0.010;2023-04-25T03:06:30;29.55;;;5.45;;
41309;SDS011;27057;51.438;-0.010;2023-04-25T03:08:57;19.52;;;4.55;;
41309;SDS011;27057;51.438;-0.010;2023-04-25T03:11:25;22.38;;;4.50;;
41309;SDS011;27057;51.438;-0.010;2023-04-25T03:13:53;16.40;;;4.53;;
41309;SDS011;27057;51.438;-0.010;2023-04-25T03:16:21;31.00;;;4.18;;
41309;SDS011;27057;51.438;-0.010;2023-04-25T03:18:49;12.52;;;3.42;;
41309;SDS011;27057;51.438;-0.010;2023-04-25T03:21:17;21.17;;;3.63;;
41309;SDS011;27057;51.438;-0.010;2023-04-25T03:23:44;23.05;;;5.13;;
41309;SDS011;27057;51.438;-0.010;2023-04-25T03:26:12;17.73;;;4.93;;
41309;SDS011;27057;51.438;-0.010;2023-04-25T03:28:39;28.38;;;4.40;;
41309;SDS011;27057;51.438;-0.010;2023-04-25T03:31:07;20.48;;;4.93;;
41309;SDS011;27057;51.438;-0.010;2023-04-25T03:33:34;23.10;;;4.22;;
41309;SDS011;27057;51.438;-0.010;2023-04-25T03:36:02;30.65;;;4.18;;
41309;SDS011;27057;51.438;-0.010;2023-04-25T03:38:30;25.58;;;4.70;;
41309;SDS011;27057;51.438;-0.010;2023-04-25T03:40:57;40.30;;;4.63;;
41309;SDS011;27057;51.438;-0.010;2023-04-25T03:43:37;15.93;;;4.10;;
41309;SDS011;27057;51.438;-0.010;2023-04-25T03:46:09;34.08;;;3.90;;
41309;SDS011;27057;51.438;-0.010;2023-04-25T03:48:38;21.45;;;3.88;;
41309;SDS011;27057;51.438;-0.010;2023-04-25T03:51:08;17.77;;;3.63;;
41309;SDS011;27057;51.438;-0.010;2023-04-25T03:53:39;29.35;;;4.18;;
41309;SDS011;27057;51.438;-0.010;2023-04-25T03:56:18;19.98;;;3.42;;
41309;SDS011;27057;51.438;-0.010;2023-04-25T03:58:47;16.80;;;3.63;;
41309;SDS011;27057;51.438;-0.010;2023-04-25T04:01:17;16.00;;;3.33;;
41309;SDS011;27057;51.438;-0.010;2023-04-25T04:03:45;21.10;;;4.53;;
41309;SDS011;27057;51.438;-0.010;2023-04-25T04:06:13;15.05;;;3.03;;
41309;SDS011;27057;51.438;-0.010;2023-04-25T04:08:43;22.60;;;4.00;;
41309;SDS011;27057;51.438;-0.010;2023-04-25T04:11:11;28.85;;;4.03;;
41309;SDS011;27057;51.438;-0.010;2023-04-25T04:13:38;32.17;;;4.20;;
41309;SDS011;27057;51.438;-0.010;2023-04-25T04:16:07;27.48;;;3.22;;
41309;SDS011;27057;51.438;-0.010;2023-04-25T04:18:34;32.30;;;4.38;;
41309;SDS011;27057;51.438;-0.010;2023-04-25T04:21:02;28.05;;;4.63;;
41309;SDS011;27057;51.438;-0.010;2023-04-25T04:23:33;23.23;;;3.60;;
41309;SDS011;27057;51.438;-0.010;2023-04-25T04:26:05;18.00;;;3.40;;
41309;SDS011;27057;51.438;-0.010;2023-04-25T04:28:39;19.83;;;3.70;;
41309;SDS011;27057;51.438;-0.010;2023-04-25T04:31:33;25.15;;;3.72;;
41309;SDS011;27057;51.438;-0.010;2023-04-25T04:34:01;23.73;;;4.32;;
41309;SDS011;27057;51.438;-0.010;2023-04-25T04:36:30;22.73;;;4.60;;
41309;SDS011;27057;51.438;-0.010;2023-04-25T04:38:57;16.02;;;3.25;;
41309;SDS011;27057;51.438;-0.010;2023-04-25T04:41:34;39.38;;;6.05;;
41309;SDS011;27057;51.438;-0.010;2023-04-25T04:44:08;18.35;;;4.05;;
41309;SDS011;27057;51.438;-0.010;2023-04-25T04:46:52;17.23;;;4.22;;
41309;SDS011;27057;51.438;-0.010;2023-04-25T04:49:46;24.92;;;4.32;;
41309;SDS011;27057;51.438;-0.010;2023-04-25T04:52:37;19.85;;;3.80;;
41309;SDS011;27057;51.438;-0.010;2023-04-25T04:55:31;24.20;;;4.15;;
41309;SDS011;27057;51.438;-0.010;2023-04-25T04:58:07;31.50;;;5.57;;
41309;SDS011;27057;51.438;-0.010;2023-04-25T05:00:51;21.85;;;4.97;;
41309;SDS011;27057;51.438;-0.010;2023-04-25T05:03:32;22.05;;;4.20;;
41309;SDS011;27057;51.438;-0.010;2023-04-25T05:06:20;20.20;;;4.57;;
41309;SDS011;27057;51.438;-0.010;2023-04-25T05:09:10;21.45;;;6.07;;
41309;SDS011;27057;51.438;-0.010;2023-04-25T05:12:01;18.40;;;4.38;;
41309;SDS011;27057;51.438;-0.010;2023-04-25T05:14:49;32.00;;;4.88;;
41309;SDS011;27057;51.438;-0.010;2023-04-25T05:17:48;24.88;;;5.20;;
41309;SDS011;27057;51.438;-0.010;2023-04-25T05:20:18;32.90;;;5.43;;
41309;SDS011;27057;51.438;-0.010;2023-04-25T05:23:01;16.63;;;4.63;;
41309;SDS011;27057;51.438;-0.010;2023-04-25T05:25:54;19.75;;;4.35;;
41309;SDS011;27057;51.438;-0.010;2023-04-25T05:28:33;25.08;;;4.50;;
41309;SDS011;27057;51.438;-0.010;2023-04-25T05:31:19;25.70;;;4.57;;
41309;SDS011;27057;51.438;-0.010;2023-04-25T05:33:55;23.90;;;5.10;;
41309;SDS011;27057;51.438;-0.010;2023-04-25T05:36:28;17.70;;;4.10;;
41309;SDS011;27057;51.438;-0.010;2023-04-25T05:38:55;20.70;;;5.07;;
41309;SDS011;27057;51.438;-0.010;2023-04-25T05:41:49;28.88;;;6.18;;
41309;SDS011;27057;51.438;-0.010;2023-04-25T05:44:42;18.52;;;4.82;;
41309;SDS011;27057;51.438;-0.010;2023-04-25T05:47:28;19.80;;;4.35;;
41309;SDS011;27057;51.438;-0.010;2023-04-25T05:50:06;34.35;;;4.90;;
41309;SDS011;27057;51.438;-0.010;2023-04-25T05:52:53;14.05;;;4.05;;
41309;SDS011;27057;51.438;-0.010;2023-04-25T05:55:34;26.77;;;5.63;;
41309;SDS011;27057;51.438;-0.010;2023-04-25T05:58:15;26.30;;;4.85;;
41309;SDS011;27057;51.438;-0.010;2023-04-25T06:00:43;25.15;;;4.57;;
41309;SDS011;27057;51.438;-0.010;2023-04-25T06:03:11;19.75;;;3.97;;
41309;SDS011;27057;51.438;-0.010;2023-04-25T06:05:45;23.48;;;4.10;;
41309;SDS011;27057;51.438;-0.010;2023-04-25T06:08:13;19.38;;;3.92;;
41309;SDS011;27057;51.438;-0.010;2023-04-25T06:10:42;22.30;;;6.05;;
41309;SDS011;27057;51.438;-0.010;2023-04-25T06:13:09;21.23;;;4.35;;
41309;SDS011;27057;51.438;-0.010;2023-04-25T06:15:37;16.38;;;4.18;;
41309;SDS011;27057;51.438;-0.010;2023-04-25T06:18:05;15.57;;;3.85;;
41309;SDS011;27057;51.438;-0.010;2023-04-25T06:20:33;22.02;;;3.97;;
41309;SDS011;27057;51.438;-0.010;2023-04-25T06:23:01;24.92;;;4.00;;
41309;SDS011;27057;51.438;-0.010;2023-04-25T06:25:40;13.57;;;3.75;;
41309;SDS011;27057;51.438;-0.010;2023-04-25T06:28:08;22.17;;;3.65;;
41309;SDS011;27057;51.438;-0.010;2023-04-25T06:30:36;13.45;;;4.07;;
41309;SDS011;27057;51.438;-0.010;2023-04-25T06:33:08;23.70;;;4.93;;
41309;SDS011;27057;51.438;-0.010;2023-04-25T06:35:36;19.00;;;4.22;;
41309;SDS011;27057;51.438;-0.010;2023-04-25T06:38:06;23.17;;;3.83;;
41309;SDS011;27057;51.438;-0.010;2023-04-25T06:40:35;25.15;;;3.70;;
41309;SDS011;27057;51.438;-0.010;2023-04-25T06:43:03;19.35;;;3.25;;
41309;SDS011;27057;51.438;-0.010;2023-04-25T06:45:56;19.25;;;3.85;;
41309;SDS011;27057;51.438;-0.010;2023-04-25T06:48:27;29.40;;;4.20;;
41309;SDS011;27057;51.438;-0.010;2023-04-25T06:50:54;23.45;;;4.40;;
41309;SDS011;27057;51.438;-0.010;2023-04-25T06:53:23;18.10;;;3.70;;
41309;SDS011;27057;51.438;-0.010;2023-04-25T06:55:57;19.13;;;5.65;;
41309;SDS011;27057;51.438;-0.010;2023-04-25T06:58:29;33.45;;;10.40;;
41309;SDS011;27057;51.438;-0.010;2023-04-25T07:01:09;27.65;;;7.35;;
41309;SDS011;27057;51.438;-0.010;2023-04-25T07:03:38;18.80;;;6.13;;
41309;SDS011;27057;51.438;-0.010;2023-04-25T07:06:13;12.50;;;4.88;;
41309;SDS011;27057;51.438;-0.010;2023-04-25T07:08:41;16.88;;;5.32;;
41309;SDS011;27057;51.438;-0.010;2023-04-25T07:11:08;18.27;;;4.18;;
41309;SDS011;27057;51.438;-0.010;2023-04-25T07:13:36;22.30;;;4.63;;
41309;SDS011;27057;51.438;-0.010;2023-04-25T07:16:04;24.27;;;4.50;;
41309;SDS011;27057;51.438;-0.010;2023-04-25T07:18:34;16.80;;;3.92;;
41309;SDS011;27057;51.438;-0.010;2023-04-25T07:21:02;21.60;;;4.28;;
41309;SDS011;27057;51.438;-0.010;2023-04-25T07:23:32;19.63;;;4.63;;
41309;SDS011;27057;51.438;-0.010;2023-04-25T07:26:03;13.00;;;3.95;;
41309;SDS011;27057;51.438;-0.010;2023-04-25T07:28:30;23.13;;;4.07;;
41309;SDS011;27057;51.438;-0.010;2023-04-25T07:30:58;16.42;;;4.82;;
41309;SDS011;27057;51.438;-0.010;2023-04-25T07:33:25;18.85;;;4.68;;
41309;SDS011;27057;51.438;-0.010;2023-04-25T07:35:54;15.70;;;4.03;;
41309;SDS011;27057;51.438;-0.010;2023-04-25T07:38:22;33.60;;;4.80;;
41309;SDS011;27057;51.438;-0.010;2023-04-25T07:40:50;17.40;;;3.53;;
41309;SDS011;27057;51.438;-0.010;2023-04-25T07:43:17;24.20;;;5.47;;
41309;SDS011;27057;51.438;-0.010;2023-04-25T07:45:54;18.98;;;4.18;;
41309;SDS011;27057;51.438;-0.010;2023-04-25T07:48:26;18.52;;;4.10;;
41309;SDS011;27057;51.438;-0.010;2023-04-25T07:50:54;22.17;;;6.30;;
41309;SDS011;27057;51.438;-0.010;2023-04-25T07:53:21;16.20;;;4.47;;
41309;SDS011;27057;51.438;-0.010;2023-04-25T07:55:53;15.63;;;3.00;;
41309;SDS011;27057;51.438;-0.010;2023-04-25T07:58:21;16.50;;;3.03;;
41309;SDS011;27057;51.438;-0.010;2023-04-25T08:00:54;13.25;;;3.10;;
41309;SDS011;27057;51.438;-0.010;2023-04-25T08:03:41;19.63;;;2.83;;
41309;SDS011;27057;51.438;-0.010;2023-04-25T08:06:21;12.23;;;3.03;;
41309;SDS011;27057;51.438;-0.010;2023-04-25T08:09:06;22.85;;;3.67;;
41309;SDS011;27057;51.438;-0.010;2023-04-25T08:11:38;25.15;;;3.40;;
41309;SDS011;27057;51.438;-0.010;2023-04-25T08:14:07;14.90;;;3.55;;
41309;SDS011;27057;51.438;-0.010;2023-04-25T08:16:36;15.88;;;2.80;;
41309;SDS011;27057;51.438;-0.010;2023-04-25T08:19:04;11.13;;;3.50;;
41309;SDS011;27057;51.438;-0.010;2023-04-25T08:21:32;16.60;;;3.05;;
41309;SDS011;27057;51.438;-0.010;2023-04-25T08:24:04;21.33;;;3.03;;
41309;SDS011;27057;51.438;-0.010;2023-04-25T08:26:35;26.00;;;4.10;;
41309;SDS011;27057;51.438;-0.010;2023-04-25T08:29:04;20.58;;;3.33;;
41309;SDS011;27057;51.438;-0.010;2023-04-25T08:31:34;17.23;;;3.63;;
41309;SDS011;27057;51.438;-0.010;2023-04-25T08:34:03;20.23;;;3.95;;
41309;SDS011;27057;51.438;-0.010;2023-04-25T08:36:42;18.40;;;3.80;;
41309;SDS011;27057;51.438;-0.010;2023-04-25T08:39:38;15.85;;;3.13;;
41309;SDS011;27057;51.438;-0.010;2023-04-25T08:42:24;18.98;;;4.18;;
41309;SDS011;27057;51.438;-0.010;2023-04-25T08:44:53;33.03;;;5.03;;
41309;SDS011;27057;51.438;-0.010;2023-04-25T08:47:25;21.58;;;3.03;;
41309;SDS011;27057;51.438;-0.010;2023-04-25T08:49:57;11.90;;;2.35;;
41309;SDS011;27057;51.438;-0.010;2023-04-25T08:52:27;19.10;;;5.18;;
41309;SDS011;27057;51.438;-0.010;2023-04-25T08:54:59;13.55;;;2.25;;
41309;SDS011;27057;51.438;-0.010;2023-04-25T08:57:28;17.90;;;3.05;;
41309;SDS011;27057;51.438;-0.010;2023-04-25T08:59:57;16.92;;;3.08;;
41309;SDS011;27057;51.438;-0.010;2023-04-25T09:02:27;11.00;;;2.33;;
41309;SDS011;27057;51.438;-0.010;2023-04-25T09:04:54;15.07;;;2.72;;
41309;SDS011;27057;51.438;-0.010;2023-04-25T09:07:23;23.05;;;3.15;;
41309;SDS011;27057;51.438;-0.010;2023-04-25T09:09:53;15.57;;;3.35;;
41309;SDS011;27057;51.438;-0.010;2023-04-25T09:12:22;18.48;;;2.72;;
41309;SDS011;27057;51.438;-0.010;2023-04-25T09:15:03;12.25;;;2.08;;
41309;SDS011;27057;51.438;-0.010;2023-04-25T09:18:02;16.63;;;3.10;;
41309;SDS011;27057;51.438;-0.010;2023-04-25T09:20:41;8.93;;;2.47;;
41309;SDS011;27057;51.438;-0.010;2023-04-25T09:23:27;14.32;;;2.80;;
41309;SDS011;27057;51.438;-0.010;2023-04-25T09:25:55;9.85;;;2.17;;
41309;SDS011;27057;51.438;-0.010;2023-04-25T09:28:23;15.18;;;2.80;;
41309;SDS011;27057;51.438;-0.010;2023-04-25T09:30:57;15.57;;;2.65;;
41309;SDS011;27057;51.438;-0.010;2023-04-25T09:33:37;21.48;;;3.10;;
41309;SDS011;27057;51.438;-0.010;2023-04-25T09:36:07;13.80;;;2.83;;
41309;SDS011;27057;51.438;-0.010;2023-04-25T09:38:54;12.07;;;2.83;;
41309;SDS011;27057;51.438;-0.010;2023-04-25T09:41:28;10.82;;;4.80;;
41309;SDS011;27057;51.438;-0.010;2023-04-25T09:44:00;12.68;;;2.70;;
41309;SDS011;27057;51.438;-0.010;2023-04-25T09:46:34;10.88;;;2.80;;
41309;SDS011;27057;51.438;-0.010;2023-04-25T09:49:11;11.95;;;3.13;;
41309;SDS011;27057;51.438;-0.010;2023-04-25T09:51:58;10.60;;;3.42;;
41309;SDS011;27057;51.438;-0.010;2023-04-25T09:54:39;11.38;;;2.38;;
41309;SDS011;27057;51.438;-0.010;2023-04-25T09:57:17;22.20;;;2.58;;
41309;SDS011;27057;51.438;-0.010;2023-04-25T09:59:50;9.77;;;2.80;;
41309;SDS011;27057;51.438;-0.010;2023-04-25T10:02:20;11.68;;;2.50;;
41309;SDS011;27057;51.438;-0.010;2023-04-25T10:04:52;9.15;;;2.47;;
41309;SDS011;27057;51.438;-0.010;2023-04-25T10:07:29;9.15;;;2.53;;
41309;SDS011;27057;51.438;-0.010;2023-04-25T10:10:01;33.13;;;5.18;;
41309;SDS011;27057;51.438;-0.010;2023-04-25T10:12:31;11.95;;;2.33;;
41309;SDS011;27057;51.438;-0.010;2023-04-25T10:15:00;17.92;;;2.33;;
41309;SDS011;27057;51.438;-0.010;2023-04-25T10:17:28;9.02;;;1.90;;
41309;SDS011;27057;51.438;-0.010;2023-04-25T10:19:56;10.25;;;2.13;;
41309;SDS011;27057;51.438;-0.010;2023-04-25T10:22:35;9.73;;;2.50;;
41309;SDS011;27057;51.438;-0.010;2023-04-25T10:25:05;15.80;;;2.30;;
41309;SDS011;27057;51.438;-0.010;2023-04-25T10:27:39;17.13;;;1.92;;
41309;SDS011;27057;51.438;-0.010;2023-04-25T10:30:08;7.03;;;2.28;;
41309;SDS011;27057;51.438;-0.010;2023-04-25T10:32:42;20.08;;;2.35;;
41309;SDS011;27057;51.438;-0.010;2023-04-25T10:35:13;3.67;;;1.35;;
41309;SDS011;27057;51.438;-0.010;2023-04-25T10:40:35;15.00;;;2.50;;
41309;SDS011;27057;51.438;-0.010;2023-04-25T10:46:01;17.03;;;2.90;;
41309;SDS011;27057;51.438;-0.010;2023-04-25T10:48:31;8.45;;;1.63;;
41309;SDS011;27057;51.438;-0.010;2023-04-25T10:51:08;11.93;;;2.25;;
41309;SDS011;27057;51.438;-0.010;2023-04-25T10:53:46;23.30;;;2.53;;
41309;SDS011;27057;51.438;-0.010;2023-04-25T10:56:21;11.80;;;2.28;;
41309;SDS011;27057;51.438;-0.010;2023-04-25T11:01:36;7.25;;;1.65;;
41309;SDS011;27057;51.438;-0.010;2023-04-25T11:04:05;10.80;;;1.83;;
41309;SDS011;27057;51.438;-0.010;2023-04-25T11:09:27;11.25;;;1.95;;
41309;SDS011;27057;51.438;-0.010;2023-04-25T11:11:55;7.18;;;2.10;;
41309;SDS011;27057;51.438;-0.010;2023-04-25T11:14:26;13.65;;;2.75;;
41309;SDS011;27057;51.438;-0.010;2023-04-25T11:16:57;10.95;;;2.28;;
41309;SDS011;27057;51.438;-0.010;2023-04-25T11:19:26;6.85;;;2.80;;
41309;SDS011;27057;51.438;-0.010;2023-04-25T11:21:55;7.45;;;2.30;;
41309;SDS011;27057;51.438;-0.010;2023-04-25T11:24:27;7.30;;;2.03;;
41309;SDS011;27057;51.438;-0.010;2023-04-25T11:26:58;13.40;;;2.20;;
41309;SDS011;27057;51.438;-0.010;2023-04-25T11:29:26;7.65;;;2.03;;
41309;SDS011;27057;51.438;-0.010;2023-04-25T11:31:54;6.28;;;2.05;;
41309;SDS011;27057;51.438;-0.010;2023-04-25T11:34:25;9.18;;;1.90;;
41309;SDS011;27057;51.438;-0.010;2023-04-25T11:36:57;6.07;;;1.92;;
41309;SDS011;27057;51.438;-0.010;2023-04-25T11:39:27;9.70;;;2.25;;
41309;SDS011;27057;51.438;-0.010;2023-04-25T11:41:55;9.98;;;2.58;;
41309;SDS011;27057;51.438;-0.010;2023-04-25T11:44:22;9.07;;;2.58;;
41309;SDS011;27057;51.438;-0.010;2023-04-25T11:46:50;4.65;;;2.28;;
41309;SDS011;27057;51.438;-0.010;2023-04-25T11:49:17;11.02;;;2.38;;
41309;SDS011;27057;51.438;-0.010;2023-04-25T11:51:46;2.72;;;1.55;;
41309;SDS011;27057;51.438;-0.010;2023-04-25T11:54:15;8.30;;;2.90;;
41309;SDS011;27057;51.438;-0.010;2023-04-25T11:56:43;12.10;;;3.10;;
41309;SDS011;27057;51.438;-0.010;2023-04-25T11:59:11;6.70;;;2.85;;
41309;SDS011;27057;51.438;-0.010;2023-04-25T12:01:40;12.95;;;4.07;;
41309;SDS011;27057;51.438;-0.010;2023-04-25T12:04:21;9.27;;;2.45;;
41309;SDS011;27057;51.438;-0.010;2023-04-25T12:06:51;6.05;;;2.22;;
41309;SDS011;27057;51.438;-0.010;2023-04-25T12:09:30;7.18;;;2.50;;
41309;SDS011;27057;51.438;-0.010;2023-04-25T12:11:59;7.43;;;2.30;;
41309;SDS011;27057;51.438;-0.010;2023-04-25T12:14:31;11.25;;;2.70;;
41309;SDS011;27057;51.438;-0.010;2023-04-25T12:17:02;8.88;;;2.60;;
41309;SDS011;27057;51.438;-0.010;2023-04-25T12:19:32;9.25;;;2.70;;
41309;SDS011;27057;51.438;-0.010;2023-04-25T12:22:01;9.93;;;3.47;;
41309;SDS011;27057;51.438;-0.010;2023-04-25T12:24:32;7.53;;;2.50;;
41309;SDS011;27057;51.438;-0.010;2023-04-25T12:27:05;11.45;;;2.75;;
41309;SDS011;27057;51.438;-0.010;2023-04-25T12:29:35;10.98;;;3.00;;
41309;SDS011;27057;51.438;-0.010;2023-04-25T12:32:16;5.22;;;2.58;;
41309;SDS011;27057;51.438;-0.010;2023-04-25T12:34:44;13.48;;;3.67;;
41309;SDS011;27057;51.438;-0.010;2023-04-25T12:37:12;5.60;;;2.72;;
41309;SDS011;27057;51.438;-0.010;2023-04-25T12:39:40;9.23;;;2.60;;
41309;SDS011;27057;51.438;-0.010;2023-04-25T12:42:08;9.70;;;2.33;;
41309;SDS011;27057;51.438;-0.010;2023-04-25T12:44:38;7.80;;;2.08;;
41309;SDS011;27057;51.438;-0.010;2023-04-25T12:47:05;11.98;;;3.03;;
41309;SDS011;27057;51.438;-0.010;2023-04-25T12:49:33;9.60;;;1.92;;
41309;SDS011;27057;51.438;-0.010;2023-04-25T12:52:01;13.05;;;2.60;;
41309;SDS011;27057;51.438;-0.010;2023-04-25T12:54:29;9.68;;;2.47;;
41309;SDS011;27057;51.438;-0.010;2023-04-25T12:56:57;13.82;;;2.75;;
41309;SDS011;27057;51.438;-0.010;2023-04-25T12:59:27;8.73;;;2.45;;
41309;SDS011;27057;51.438;-0.010;2023-04-25T13:01:55;6.95;;;2.72;;
41309;SDS011;27057;51.438;-0.010;2023-04-25T13:04:22;9.27;;;3.55;;
41309;SDS011;27057;51.438;-0.010;2023-04-25T13:06:50;6.85;;;2.50;;
41309;SDS011;27057;51.438;-0.010;2023-04-25T13:09:17;8.43;;;1.88;;
41309;SDS011;27057;51.438;-0.010;2023-04-25T13:11:45;9.73;;;1.98;;
41309;SDS011;27057;51.438;-0.010;2023-04-25T13:14:12;8.35;;;2.08;;
41309;SDS011;27057;51.438;-0.010;2023-04-25T13:16:40;16.88;;;1.80;;
41309;SDS011;27057;51.438;-0.010;2023-04-25T13:19:08;8.18;;;2.70;;
41309;SDS011;27057;51.438;-0.010;2023-04-25T13:21:38;14.55;;;2.25;;
41309;SDS011;27057;51.438;-0.010;2023-04-25T13:24:06;12.35;;;2.80;;
41309;SDS011;27057;51.438;-0.010;2023-04-25T13:26:33;6.85;;;2.65;;
41309;SDS011;27057;51.438;-0.010;2023-04-25T13:29:01;9.90;;;2.28;;
41309;SDS011;27057;51.438;-0.010;2023-04-25T13:31:30;5.72;;;1.90;;
41309;SDS011;27057;51.438;-0.010;2023-04-25T13:33:58;9.10;;;2.20;;
41309;SDS011;27057;51.438;-0.010;2023-04-25T13:36:26;11.65;;;1.90;;
41309;SDS011;27057;51.438;-0.010;2023-04-25T13:38:55;9.35;;;2.10;;
41309;SDS011;27057;51.438;-0.010;2023-04-25T13:41:22;5.88;;;2.13;;
41309;SDS011;27057;51.438;-0.010;2023-04-25T13:43:50;6.82;;;2.53;;
41309;SDS011;27057;51.438;-0.010;2023-04-25T13:46:17;4.82;;;1.73;;
41309;SDS011;27057;51.438;-0.010;2023-04-25T13:49:05;7.90;;;2.70;;
41309;SDS011;27057;51.438;-0.010;2023-04-25T13:51:39;9.80;;;2.20;;
41309;SDS011;27057;51.438;-0.010;2023-04-25T13:54:07;8.25;;;2.10;;
41309;SDS011;27057;51.438;-0.010;2023-04-25T13:56:35;10.98;;;2.60;;
41309;SDS011;27057;51.438;-0.010;2023-04-25T13:59:02;6.18;;;2.17;;
41309;SDS011;27057;51.438;-0.010;2023-04-25T14:01:30;14.50;;;3.38;;
41309;SDS011;27057;51.438;-0.010;2023-04-25T14:04:01;15.93;;;2.70;;
41309;SDS011;27057;51.438;-0.010;2023-04-25T14:06:31;3.25;;;1.95;;
41309;SDS011;27057;51.438;-0.010;2023-04-25T14:08:59;5.68;;;2.63;;
41309;SDS011;27057;51.438;-0.010;2023-04-25T14:11:31;12.02;;;2.17;;
41309;SDS011;27057;51.438;-0.010;2023-04-25T14:13:58;6.68;;;2.00;;
41309;SDS011;27057;51.438;-0.010;2023-04-25T14:16:26;6.53;;;2.35;;
41309;SDS011;27057;51.438;-0.010;2023-04-25T14:18:54;7.43;;;2.38;;
41309;SDS011;27057;51.438;-0.010;2023-04-25T14:21:21;7.47;;;2.50;;
41309;SDS011;27057;51.438;-0.010;2023-04-25T14:23:49;14.90;;;2.70;;
41309;SDS011;27057;51.438;-0.010;2023-04-25T14:26:17;11.38;;;2.78;;
41309;SDS011;27057;51.438;-0.010;2023-04-25T14:28:45;9.98;;;3.08;;
41309;SDS011;27057;51.438;-0.010;2023-04-25T14:31:12;7.35;;;2.42;;
41309;SDS011;27057;51.438;-0.010;2023-04-25T14:33:41;5.72;;;2.00;;
41309;SDS011;27057;51.438;-0.010;2023-04-25T14:36:09;8.48;;;2.30;;
41309;SDS011;27057;51.438;-0.010;2023-04-25T14:38:38;17.92;;;2.65;;
41309;SDS011;27057;51.438;-0.010;2023-04-25T14:41:05;5.72;;;1.90;;
41309;SDS011;27057;51.438;-0.010;2023-04-25T14:43:33;9.35;;;2.45;;
41309;SDS011;27057;51.438;-0.010;2023-04-25T14:46:02;8.63;;;3.00;;
41309;SDS011;27057;51.438;-0.010;2023-04-25T14:48:30;14.65;;;2.80;;
41309;SDS011;27057;51.438;-0.010;2023-04-25T14:50:58;17.35;;;2.50;;
41309;SDS011;27057;51.438;-0.010;2023-04-25T14:53:27;10.40;;;2.55;;
41309;SDS011;27057;51.438;-0.010;2023-04-25T14:55:54;14.95;;;2.72;;
41309;SDS011;27057;51.438;-0.010;2023-04-25T14:58:22;4.75;;;2.40;;
41309;SDS011;27057;51.438;-0.010;2023-04-25T15:00:49;7.85;;;2.33;;